sensor_id;sensor_type;location;lat;lon;timestamp;temperature;humidity
46217;DHT22;47258;59.424;13.482;2022-07-30T00:01:07;13.60;99.90
46217;DHT22;47258;59.424;13.482;2022-07-30T00:03:34;13.60;99.90
46217;DHT22;47258;59.424;13.482;2022-07-30T00:06:03;13.60;99.90
46217;DHT22;47258;59.424;13.482;2022-07-30T00:08:30;13.60;99.90
46217;DHT22;47258;59.424;13.482;2022-07-30T00:10:57;13.60;99.90
46217;DHT22;47258;59.424;13.482;2022-07-30T00:13:24;13.60;99.90
46217;DHT22;47258;59.424;13.482;2022-07-30T00:15:51;13.50;99.90
46217;DHT22;47258;59.424;13.482;2022-07-30T00:18:18;13.50;99.90
46217;DHT22;47258;59.424;13.482;2022-07-30T00:20:44;13.50;99.90
46217;DHT22;47258;59.424;13.482;2022-07-30T00:23:13;13.50;99.90
46217;DHT22;47258;59.424;13.482;2022-07-30T00:25:40;13.40;99.90
46217;DHT22;47258;59.424;13.482;2022-07-30T00:28:07;13.40;99.90
46217;DHT22;47258;59.424;13.482;2022-07-30T00:30:34;13.30;99.90
46217;DHT22;47258;59.424;13.482;2022-07-30T00:33:01;13.30;99.90
46217;DHT22;47258;59.424;13.482;2022-07-30T00:35:28;13.30;99.90
46217;DHT22;47258;59.424;13.482;2022-07-30T00:37:55;13.30;99.90
46217;DHT22;47258;59.424;13.482;2022-07-30T00:40:23;13.30;99.90
46217;DHT22;47258;59.424;13.482;2022-07-30T00:42:50;13.20;99.90
46217;DHT22;47258;59.424;13.482;2022-07-30T00:45:17;13.20;99.90
46217;DHT22;47258;59.424;13.482;2022-07-30T00:47:45;13.20;99.90
46217;DHT22;47258;59.424;13.482;2022-07-30T00:50:13;13.10;99.90
46217;DHT22;47258;59.424;13.482;2022-07-30T00:52:41;13.10;99.90
46217;DHT22;47258;59.424;13.482;2022-07-30T00:55:10;13.10;99.90
46217;DHT22;47258;59.424;13.482;2022-07-30T00:57:40;13.10;99.90
46217;DHT22;47258;59.424;13.482;2022-07-30T01:00:10;13.10;99.90
46217;DHT22;47258;59.424;13.482;2022-07-30T01:02:38;13.10;99.90
46217;DHT22;47258;59.424;13.482;2022-07-30T01:05:05;13.10;99.90
46217;DHT22;47258;59.424;13.482;2022-07-30T01:07:33;13.00;99.90
46217;DHT22;47258;59.424;13.482;2022-07-30T01:10:00;13.00;99.90
46217;DHT22;47258;59.424;13.482;2022-07-30T01:12:27;12.90;99.90
46217;DHT22;47258;59.424;13.482;2022-07-30T01:14:56;12.80;99.90
46217;DHT22;47258;59.424;13.482;2022-07-30T01:17:24;12.80;99.90
46217;DHT22;47258;59.424;13.482;2022-07-30T01:19:53;12.70;99.90
46217;DHT22;47258;59.424;13.482;2022-07-30T01:22:38;12.70;99.90
46217;DHT22;47258;59.424;13.482;2022-07-30T01:25:11;12.70;99.90
46217;DHT22;47258;59.424;13.482;2022-07-30T01:27:43;12.60;99.90
46217;DHT22;47258;59.424;13.482;2022-07-30T01:30:16;12.60;99.90
46217;DHT22;47258;59.424;13.482;2022-07-30T01:32:43;12.50;99.90
46217;DHT22;47258;59.424;13.482;2022-07-30T01:35:11;12.50;99.90
46217;DHT22;47258;59.424;13.482;2022-07-30T01:37:40;12.50;99.90
46217;DHT22;47258;59.424;13.482;2022-07-30T01:40:08;12.40;99.90
46217;DHT22;47258;59.424;13.482;2022-07-30T01:42:37;12.30;99.90
46217;DHT22;47258;59.424;13.482;2022-07-30T01:45:07;12.30;99.90
46217;DHT22;47258;59.424;13.482;2022-07-30T01:47:34;12.20;99.90
46217;DHT22;47258;59.424;13.482;2022-07-30T01:50:04;12.20;99.90
46217;DHT22;47258;59.424;13.482;2022-07-30T01:52:35;12.10;99.90
46217;DHT22;47258;59.424;13.482;2022-07-30T01:55:03;12.10;99.90
46217;DHT22;47258;59.424;13.482;2022-07-30T01:57:31;12.10;99.90
46217;DHT22;47258;59.424;13.482;2022-07-30T02:00:03;12.00;99.90
46217;DHT22;47258;59.424;13.482;2022-07-30T02:02:33;12.10;99.90
46217;DHT22;47258;59.424;13.482;2022-07-30T02:05:01;12.10;99.90
46217;DHT22;47258;59.424;13.482;2022-07-30T02:07:34;12.00;99.90
46217;DHT22;47258;59.424;13.482;2022-07-30T02:10:05;12.00;99.90
46217;DHT22;47258;59.424;13.482;2022-07-30T02:12:34;12.00;99.90
46217;DHT22;47258;59.424;13.482;2022-07-30T02:15:13;11.90;99.90
46217;DHT22;47258;59.424;13.482;2022-07-30T02:17:43;11.90;99.90
46217;DHT22;47258;59.424;13.482;2022-07-30T02:20:15;11.80;99.90
46217;DHT22;47258;59.424;13.482;2022-07-30T02:22:45;11.80;99.90
46217;DHT22;47258;59.424;13.482;2022-07-30T02:25:14;11.80;99.90
46217;DHT22;47258;59.424;13.482;2022-07-30T02:27:42;11.80;99.90
46217;DHT22;47258;59.424;13.482;2022-07-30T02:30:11;11.80;99.90
46217;DHT22;47258;59.424;13.482;2022-07-30T02:32:43;11.80;99.90
46217;DHT22;47258;59.424;13.482;2022-07-30T02:35:15;11.70;99.90
46217;DHT22;47258;59.424;13.482;2022-07-30T02:37:44;11.70;99.90
46217;DHT22;47258;59.424;13.482;2022-07-30T02:40:13;11.70;99.90
46217;DHT22;47258;59.424;13.482;2022-07-30T02:42:41;11.70;99.90
46217;DHT22;47258;59.424;13.482;2022-07-30T02:45:09;11.60;99.90
46217;DHT22;47258;59.424;13.482;2022-07-30T02:47:38;11.60;99.90
46217;DHT22;47258;59.424;13.482;2022-07-30T02:50:08;11.60;99.90
46217;DHT22;47258;59.424;13.482;2022-07-30T02:52:37;11.60;99.90
46217;DHT22;47258;59.424;13.482;2022-07-30T02:55:07;11.60;99.90
46217;DHT22;47258;59.424;13.482;2022-07-30T02:57:34;11.60;99.90
46217;DHT22;47258;59.424;13.482;2022-07-30T03:00:03;11.60;99.90
46217;DHT22;47258;59.424;13.482;2022-07-30T03:02:32;11.60;99.90
46217;DHT22;47258;59.424;13.482;2022-07-30T03:05:00;11.50;99.90
46217;DHT22;47258;59.424;13.482;2022-07-30T03:07:31;11.60;99.90
46217;DHT22;47258;59.424;13.482;2022-07-30T03:09:58;11.50;99.90
46217;DHT22;47258;59.424;13.482;2022-07-30T03:12:28;11.50;99.90
46217;DHT22;47258;59.424;13.482;2022-07-30T03:14:56;11.50;99.90
46217;DHT22;47258;59.424;13.482;2022-07-30T03:17:25;11.50;99.90
46217;DHT22;47258;59.424;13.482;2022-07-30T03:19:55;11.50;99.90
46217;DHT22;47258;59.424;13.482;2022-07-30T03:22:25;11.50;99.90
46217;DHT22;47258;59.424;13.482;2022-07-30T03:24:54;11.50;99.90
46217;DHT22;47258;59.424;13.482;2022-07-30T03:27:23;11.40;99.90
46217;DHT22;47258;59.424;13.482;2022-07-30T03:29:52;11.40;99.90
46217;DHT22;47258;59.424;13.482;2022-07-30T03:32:20;11.40;99.90
46217;DHT22;47258;59.424;13.482;2022-07-30T03:34:49;11.30;99.90
46217;DHT22;47258;59.424;13.482;2022-07-30T03:37:17;11.40;99.90
46217;DHT22;47258;59.424;13.482;2022-07-30T03:39:44;11.40;99.90
46217;DHT22;47258;59.424;13.482;2022-07-30T03:42:14;11.40;99.90
46217;DHT22;47258;59.424;13.482;2022-07-30T03:44:43;11.40;99.90
46217;DHT22;47258;59.424;13.482;2022-07-30T03:49:39;11.40;99.90
46217;DHT22;47258;59.424;13.482;2022-07-30T03:52:06;11.40;99.90
46217;DHT22;47258;59.424;13.482;2022-07-30T03:54:34;11.50;99.90
46217;DHT22;47258;59.424;13.482;2022-07-30T03:57:03;11.50;99.90
46217;DHT22;47258;59.424;13.482;2022-07-30T03:59:32;11.50;99.90
46217;DHT22;47258;59.424;13.482;2022-07-30T04:02:00;11.50;99.90
46217;DHT22;47258;59.424;13.482;2022-07-30T04:04:27;11.60;99.90
46217;DHT22;47258;59.424;13.482;2022-07-30T04:06:55;11.60;99.90
46217;DHT22;47258;59.424;13.482;2022-07-30T04:09:23;11.60;99.90
46217;DHT22;47258;59.424;13.482;2022-07-30T04:11:50;11.70;99.90
46217;DHT22;47258;59.424;13.482;2022-07-30T04:14:17;11.70;99.90
46217;DHT22;47258;59.424;13.482;2022-07-30T04:16:50;11.80;99.90
46217;DHT22;47258;59.424;13.482;2022-07-30T04:19:23;11.90;99.90
46217;DHT22;47258;59.424;13.482;2022-07-30T04:21:53;11.90;99.90
46217;DHT22;47258;59.424;13.482;2022-07-30T04:24:21;12.00;99.90
46217;DHT22;47258;59.424;13.482;2022-07-30T04:26:49;12.00;99.90
46217;DHT22;47258;59.424;13.482;2022-07-30T04:29:17;12.10;99.90
46217;DHT22;47258;59.424;13.482;2022-07-30T04:31:46;12.10;99.90
46217;DHT22;47258;59.424;13.482;2022-07-30T04:34:13;12.20;99.90
46217;DHT22;47258;59.424;13.482;2022-07-30T04:36:42;12.20;99.90
46217;DHT22;47258;59.424;13.482;2022-07-30T04:39:09;12.30;99.90
46217;DHT22;47258;59.424;13.482;2022-07-30T04:41:37;12.30;99.90
46217;DHT22;47258;59.424;13.482;2022-07-30T04:44:05;12.40;99.90
46217;DHT22;47258;59.424;13.482;2022-07-30T04:46:32;12.40;99.90
46217;DHT22;47258;59.424;13.482;2022-07-30T04:49:00;12.50;99.90
46217;DHT22;47258;59.424;13.482;2022-07-30T04:51:31;12.60;99.90
46217;DHT22;47258;59.424;13.482;2022-07-30T04:53:59;12.70;99.90
46217;DHT22;47258;59.424;13.482;2022-07-30T04:56:28;12.70;99.90
46217;DHT22;47258;59.424;13.482;2022-07-30T04:58:56;12.80;99.90
46217;DHT22;47258;59.424;13.482;2022-07-30T05:01:25;12.90;99.90
46217;DHT22;47258;59.424;13.482;2022-07-30T05:03:54;13.00;99.90
46217;DHT22;47258;59.424;13.482;2022-07-30T05:06:24;13.10;99.90
46217;DHT22;47258;59.424;13.482;2022-07-30T05:08:52;13.20;99.90
46217;DHT22;47258;59.424;13.482;2022-07-30T05:11:19;13.20;99.90
46217;DHT22;47258;59.424;13.482;2022-07-30T05:13:47;13.30;99.90
46217;DHT22;47258;59.424;13.482;2022-07-30T05:16:14;13.40;99.90
46217;DHT22;47258;59.424;13.482;2022-07-30T05:18:42;13.50;99.90
46217;DHT22;47258;59.424;13.482;2022-07-30T05:21:09;13.70;99.90
46217;DHT22;47258;59.424;13.482;2022-07-30T05:23:38;13.80;99.90
46217;DHT22;47258;59.424;13.482;2022-07-30T05:26:05;14.00;99.90
46217;DHT22;47258;59.424;13.482;2022-07-30T05:28:32;14.10;99.90
46217;DHT22;47258;59.424;13.482;2022-07-30T05:30:59;14.20;99.90
46217;DHT22;47258;59.424;13.482;2022-07-30T05:33:26;14.50;99.90
46217;DHT22;47258;59.424;13.482;2022-07-30T05:35:53;14.70;99.90
46217;DHT22;47258;59.424;13.482;2022-07-30T05:38:20;14.80;99.90
46217;DHT22;47258;59.424;13.482;2022-07-30T05:40:49;15.00;99.90
46217;DHT22;47258;59.424;13.482;2022-07-30T05:43:16;15.10;99.90
46217;DHT22;47258;59.424;13.482;2022-07-30T05:45:43;15.20;99.90
46217;DHT22;47258;59.424;13.482;2022-07-30T05:48:10;15.40;99.90
46217;DHT22;47258;59.424;13.482;2022-07-30T05:50:37;15.50;99.90
46217;DHT22;47258;59.424;13.482;2022-07-30T05:53:04;15.60;99.90
46217;DHT22;47258;59.424;13.482;2022-07-30T05:55:31;15.70;99.90
46217;DHT22;47258;59.424;13.482;2022-07-30T05:57:59;15.80;99.90
46217;DHT22;47258;59.424;13.482;2022-07-30T06:00:26;16.00;99.90
46217;DHT22;47258;59.424;13.482;2022-07-30T06:02:53;16.10;99.90
46217;DHT22;47258;59.424;13.482;2022-07-30T06:05:20;16.20;99.90
46217;DHT22;47258;59.424;13.482;2022-07-30T06:07:47;16.30;99.90
46217;DHT22;47258;59.424;13.482;2022-07-30T06:10:14;16.50;99.90
46217;DHT22;47258;59.424;13.482;2022-07-30T06:12:41;16.70;99.90
46217;DHT22;47258;59.424;13.482;2022-07-30T06:15:10;16.90;99.90
46217;DHT22;47258;59.424;13.482;2022-07-30T06:17:41;17.40;99.90
46217;DHT22;47258;59.424;13.482;2022-07-30T06:20:09;18.20;99.90
46217;DHT22;47258;59.424;13.482;2022-07-30T06:22:37;19.50;99.90
46217;DHT22;47258;59.424;13.482;2022-07-30T06:25:04;20.40;99.90
46217;DHT22;47258;59.424;13.482;2022-07-30T06:27:32;20.60;99.90
46217;DHT22;47258;59.424;13.482;2022-07-30T06:29:59;20.40;99.90
46217;DHT22;47258;59.424;13.482;2022-07-30T06:32:27;20.20;99.90
46217;DHT22;47258;59.424;13.482;2022-07-30T06:34:54;20.10;99.90
46217;DHT22;47258;59.424;13.482;2022-07-30T06:37:21;20.50;99.90
46217;DHT22;47258;59.424;13.482;2022-07-30T06:39:48;21.40;99.90
46217;DHT22;47258;59.424;13.482;2022-07-30T06:42:15;23.00;99.90
46217;DHT22;47258;59.424;13.482;2022-07-30T06:44:42;25.00;99.90
46217;DHT22;47258;59.424;13.482;2022-07-30T06:47:09;26.90;99.90
46217;DHT22;47258;59.424;13.482;2022-07-30T06:49:38;28.60;99.90
46217;DHT22;47258;59.424;13.482;2022-07-30T06:52:05;30.10;99.90
46217;DHT22;47258;59.424;13.482;2022-07-30T06:54:32;31.00;98.90
46217;DHT22;47258;59.424;13.482;2022-07-30T06:56:59;32.20;95.90
46217;DHT22;47258;59.424;13.482;2022-07-30T06:59:26;33.20;91.10
46217;DHT22;47258;59.424;13.482;2022-07-30T07:01:53;34.00;85.60
46217;DHT22;47258;59.424;13.482;2022-07-30T07:04:21;35.10;81.10
46217;DHT22;47258;59.424;13.482;2022-07-30T07:06:50;36.00;76.70
46217;DHT22;47258;59.424;13.482;2022-07-30T07:09:18;36.70;71.20
46217;DHT22;47258;59.424;13.482;2022-07-30T07:11:45;37.40;67.50
46217;DHT22;47258;59.424;13.482;2022-07-30T07:14:12;37.70;64.60
46217;DHT22;47258;59.424;13.482;2022-07-30T07:16:39;38.40;62.80
46217;DHT22;47258;59.424;13.482;2022-07-30T07:19:06;39.20;60.20
46217;DHT22;47258;59.424;13.482;2022-07-30T07:21:33;39.50;57.50
46217;DHT22;47258;59.424;13.482;2022-07-30T07:24:02;39.70;56.10
46217;DHT22;47258;59.424;13.482;2022-07-30T07:26:30;40.10;55.50
46217;DHT22;47258;59.424;13.482;2022-07-30T07:28:57;40.20;53.90
46217;DHT22;47258;59.424;13.482;2022-07-30T07:31:24;40.80;53.50
46217;DHT22;47258;59.424;13.482;2022-07-30T07:33:52;41.30;52.20
46217;DHT22;47258;59.424;13.482;2022-07-30T07:36:19;41.60;50.90
46217;DHT22;47258;59.424;13.482;2022-07-30T07:38:46;41.80;50.90
46217;DHT22;47258;59.424;13.482;2022-07-30T07:41:14;41.90;50.70
46217;DHT22;47258;59.424;13.482;2022-07-30T07:43:41;42.10;49.90
46217;DHT22;47258;59.424;13.482;2022-07-30T07:46:08;42.40;48.80
46217;DHT22;47258;59.424;13.482;2022-07-30T07:48:36;42.50;48.60
46217;DHT22;47258;59.424;13.482;2022-07-30T07:51:04;42.60;48.90
46217;DHT22;47258;59.424;13.482;2022-07-30T07:53:31;42.70;48.10
46217;DHT22;47258;59.424;13.482;2022-07-30T07:55:58;42.80;47.10
46217;DHT22;47258;59.424;13.482;2022-07-30T07:58:26;43.00;47.20
46217;DHT22;47258;59.424;13.482;2022-07-30T08:00:53;43.10;46.70
46217;DHT22;47258;59.424;13.482;2022-07-30T08:03:20;43.20;46.50
46217;DHT22;47258;59.424;13.482;2022-07-30T08:05:47;43.10;45.90
46217;DHT22;47258;59.424;13.482;2022-07-30T08:08:14;43.10;44.40
46217;DHT22;47258;59.424;13.482;2022-07-30T08:10:41;43.20;45.80
46217;DHT22;47258;59.424;13.482;2022-07-30T08:13:08;43.50;44.60
46217;DHT22;47258;59.424;13.482;2022-07-30T08:15:36;43.60;45.30
46217;DHT22;47258;59.424;13.482;2022-07-30T08:18:04;43.80;44.50
46217;DHT22;47258;59.424;13.482;2022-07-30T08:20:32;43.00;44.70
46217;DHT22;47258;59.424;13.482;2022-07-30T08:23:00;41.80;46.70
46217;DHT22;47258;59.424;13.482;2022-07-30T08:25:27;41.00;47.70
46217;DHT22;47258;59.424;13.482;2022-07-30T08:27:54;40.30;47.30
46217;DHT22;47258;59.424;13.482;2022-07-30T08:30:21;39.50;48.10
46217;DHT22;47258;59.424;13.482;2022-07-30T08:32:50;38.60;49.90
46217;DHT22;47258;59.424;13.482;2022-07-30T08:35:16;37.70;49.00
46217;DHT22;47258;59.424;13.482;2022-07-30T08:37:43;36.60;51.80
46217;DHT22;47258;59.424;13.482;2022-07-30T08:40:12;35.70;50.90
46217;DHT22;47258;59.424;13.482;2022-07-30T08:42:39;34.80;52.30
46217;DHT22;47258;59.424;13.482;2022-07-30T08:45:08;34.10;52.30
46217;DHT22;47258;59.424;13.482;2022-07-30T08:47:40;33.40;51.60
46217;DHT22;47258;59.424;13.482;2022-07-30T08:50:10;32.80;54.30
46217;DHT22;47258;59.424;13.482;2022-07-30T08:52:37;32.30;54.50
46217;DHT22;47258;59.424;13.482;2022-07-30T08:55:05;31.80;56.60
46217;DHT22;47258;59.424;13.482;2022-07-30T08:57:33;31.50;56.90
46217;DHT22;47258;59.424;13.482;2022-07-30T09:00:02;31.20;57.00
46217;DHT22;47258;59.424;13.482;2022-07-30T09:02:30;31.00;58.30
46217;DHT22;47258;59.424;13.482;2022-07-30T09:04:57;30.80;58.00
46217;DHT22;47258;59.424;13.482;2022-07-30T09:07:26;30.50;58.10
46217;DHT22;47258;59.424;13.482;2022-07-30T09:09:53;30.20;60.80
46217;DHT22;47258;59.424;13.482;2022-07-30T09:12:37;29.90;61.70
46217;DHT22;47258;59.424;13.482;2022-07-30T09:15:07;29.80;61.90
46217;DHT22;47258;59.424;13.482;2022-07-30T09:17:52;29.50;62.40
46217;DHT22;47258;59.424;13.482;2022-07-30T09:20:22;29.50;61.70
46217;DHT22;47258;59.424;13.482;2022-07-30T09:22:52;29.40;59.70
46217;DHT22;47258;59.424;13.482;2022-07-30T09:25:34;29.20;57.40
46217;DHT22;47258;59.424;13.482;2022-07-30T09:28:02;28.90;57.20
46217;DHT22;47258;59.424;13.482;2022-07-30T09:30:43;28.80;58.30
46217;DHT22;47258;59.424;13.482;2022-07-30T09:33:10;28.80;59.00
46217;DHT22;47258;59.424;13.482;2022-07-30T09:35:38;28.60;59.20
46217;DHT22;47258;59.424;13.482;2022-07-30T09:38:07;28.50;59.30
46217;DHT22;47258;59.424;13.482;2022-07-30T09:40:34;28.40;59.50
46217;DHT22;47258;59.424;13.482;2022-07-30T09:43:04;28.30;58.10
46217;DHT22;47258;59.424;13.482;2022-07-30T09:45:31;28.30;58.70
46217;DHT22;47258;59.424;13.482;2022-07-30T09:47:58;28.10;59.70
46217;DHT22;47258;59.424;13.482;2022-07-30T09:50:26;28.10;59.30
46217;DHT22;47258;59.424;13.482;2022-07-30T09:52:53;28.00;60.50
46217;DHT22;47258;59.424;13.482;2022-07-30T09:55:33;28.00;60.80
46217;DHT22;47258;59.424;13.482;2022-07-30T09:58:01;27.90;61.80
46217;DHT22;47258;59.424;13.482;2022-07-30T10:00:30;27.80;62.80
46217;DHT22;47258;59.424;13.482;2022-07-30T10:02:57;27.80;61.40
46217;DHT22;47258;59.424;13.482;2022-07-30T10:05:25;27.70;60.80
46217;DHT22;47258;59.424;13.482;2022-07-30T10:07:55;27.70;60.70
46217;DHT22;47258;59.424;13.482;2022-07-30T10:10:23;27.70;62.60
46217;DHT22;47258;59.424;13.482;2022-07-30T10:12:53;27.60;59.90
46217;DHT22;47258;59.424;13.482;2022-07-30T10:15:24;27.50;61.60
46217;DHT22;47258;59.424;13.482;2022-07-30T10:17:53;27.50;61.90
46217;DHT22;47258;59.424;13.482;2022-07-30T10:20:21;27.50;63.60
46217;DHT22;47258;59.424;13.482;2022-07-30T10:22:48;27.50;64.20
46217;DHT22;47258;59.424;13.482;2022-07-30T10:25:17;27.50;63.30
46217;DHT22;47258;59.424;13.482;2022-07-30T10:27:44;27.60;63.90
46217;DHT22;47258;59.424;13.482;2022-07-30T10:30:14;27.50;63.10
46217;DHT22;47258;59.424;13.482;2022-07-30T10:32:42;27.50;64.10
46217;DHT22;47258;59.424;13.482;2022-07-30T10:35:09;27.50;65.00
46217;DHT22;47258;59.424;13.482;2022-07-30T10:37:40;27.50;66.10
46217;DHT22;47258;59.424;13.482;2022-07-30T10:40:13;27.50;65.80
46217;DHT22;47258;59.424;13.482;2022-07-30T10:43:19;27.50;61.40
46217;DHT22;47258;59.424;13.482;2022-07-30T10:45:55;27.50;63.70
46217;DHT22;47258;59.424;13.482;2022-07-30T10:48:25;27.40;61.30
46217;DHT22;47258;59.424;13.482;2022-07-30T10:50:54;27.40;63.20
46217;DHT22;47258;59.424;13.482;2022-07-30T10:53:31;27.40;64.50
46217;DHT22;47258;59.424;13.482;2022-07-30T10:56:16;27.30;63.80
46217;DHT22;47258;59.424;13.482;2022-07-30T10:59:00;27.30;64.20
46217;DHT22;47258;59.424;13.482;2022-07-30T11:04:33;27.30;63.10
46217;DHT22;47258;59.424;13.482;2022-07-30T11:07:26;27.20;65.00
46217;DHT22;47258;59.424;13.482;2022-07-30T11:09:54;27.20;66.90
46217;DHT22;47258;59.424;13.482;2022-07-30T11:12:52;27.20;64.00
46217;DHT22;47258;59.424;13.482;2022-07-30T11:15:19;27.30;66.70
46217;DHT22;47258;59.424;13.482;2022-07-30T11:18:04;27.30;65.20
46217;DHT22;47258;59.424;13.482;2022-07-30T11:20:35;27.40;64.70
46217;DHT22;47258;59.424;13.482;2022-07-30T11:23:35;27.30;65.50
46217;DHT22;47258;59.424;13.482;2022-07-30T11:26:03;27.30;64.90
46217;DHT22;47258;59.424;13.482;2022-07-30T11:28:39;27.30;65.60
46217;DHT22;47258;59.424;13.482;2022-07-30T11:31:26;27.30;64.90
46217;DHT22;47258;59.424;13.482;2022-07-30T11:34:23;27.30;64.70
46217;DHT22;47258;59.424;13.482;2022-07-30T11:37:08;27.20;64.80
46217;DHT22;47258;59.424;13.482;2022-07-30T11:40:09;27.20;67.30
46217;DHT22;47258;59.424;13.482;2022-07-30T11:42:40;27.20;67.00
46217;DHT22;47258;59.424;13.482;2022-07-30T11:45:24;27.20;66.50
46217;DHT22;47258;59.424;13.482;2022-07-30T11:47:57;27.20;68.30
46217;DHT22;47258;59.424;13.482;2022-07-30T11:50:27;27.20;68.50
46217;DHT22;47258;59.424;13.482;2022-07-30T11:52:57;27.20;66.90
46217;DHT22;47258;59.424;13.482;2022-07-30T11:55:26;27.20;66.20
46217;DHT22;47258;59.424;13.482;2022-07-30T11:57:56;27.20;65.40
46217;DHT22;47258;59.424;13.482;2022-07-30T12:00:23;27.10;66.90
46217;DHT22;47258;59.424;13.482;2022-07-30T12:02:50;27.10;66.70
46217;DHT22;47258;59.424;13.482;2022-07-30T12:05:23;27.10;63.90
46217;DHT22;47258;59.424;13.482;2022-07-30T12:07:57;27.10;68.20
46217;DHT22;47258;59.424;13.482;2022-07-30T12:10:24;27.10;66.50
46217;DHT22;47258;59.424;13.482;2022-07-30T12:12:51;27.10;67.40
46217;DHT22;47258;59.424;13.482;2022-07-30T12:15:29;27.10;69.00
46217;DHT22;47258;59.424;13.482;2022-07-30T12:17:57;27.20;68.80
46217;DHT22;47258;59.424;13.482;2022-07-30T12:20:26;27.20;67.60
46217;DHT22;47258;59.424;13.482;2022-07-30T12:22:55;27.20;67.90
46217;DHT22;47258;59.424;13.482;2022-07-30T12:25:22;27.20;67.60
46217;DHT22;47258;59.424;13.482;2022-07-30T12:27:50;27.20;69.70
46217;DHT22;47258;59.424;13.482;2022-07-30T12:30:17;27.20;67.80
46217;DHT22;47258;59.424;13.482;2022-07-30T12:32:44;27.20;68.20
46217;DHT22;47258;59.424;13.482;2022-07-30T12:35:11;27.20;70.00
46217;DHT22;47258;59.424;13.482;2022-07-30T12:37:38;27.10;70.00
46217;DHT22;47258;59.424;13.482;2022-07-30T12:40:09;27.10;70.20
46217;DHT22;47258;59.424;13.482;2022-07-30T12:42:48;27.10;69.70
46217;DHT22;47258;59.424;13.482;2022-07-30T12:45:28;27.10;69.70
46217;DHT22;47258;59.424;13.482;2022-07-30T12:47:56;27.10;67.70
46217;DHT22;47258;59.424;13.482;2022-07-30T12:50:24;27.10;66.70
46217;DHT22;47258;59.424;13.482;2022-07-30T12:52:52;27.10;69.20
46217;DHT22;47258;59.424;13.482;2022-07-30T12:55:29;27.10;67.40
46217;DHT22;47258;59.424;13.482;2022-07-30T12:57:59;27.20;69.60
46217;DHT22;47258;59.424;13.482;2022-07-30T13:00:28;27.10;66.20
46217;DHT22;47258;59.424;13.482;2022-07-30T13:02:56;27.20;66.70
46217;DHT22;47258;59.424;13.482;2022-07-30T13:05:43;27.10;61.10
46217;DHT22;47258;59.424;13.482;2022-07-30T13:08:10;27.00;61.80
46217;DHT22;47258;59.424;13.482;2022-07-30T13:10:53;26.90;59.60
46217;DHT22;47258;59.424;13.482;2022-07-30T13:13:20;26.80;59.30
46217;DHT22;47258;59.424;13.482;2022-07-30T13:15:56;26.70;61.80
46217;DHT22;47258;59.424;13.482;2022-07-30T13:18:24;26.80;58.50
46217;DHT22;47258;59.424;13.482;2022-07-30T13:20:51;26.70;58.30
46217;DHT22;47258;59.424;13.482;2022-07-30T13:23:18;26.70;58.00
46217;DHT22;47258;59.424;13.482;2022-07-30T13:25:46;26.60;57.00
46217;DHT22;47258;59.424;13.482;2022-07-30T13:28:13;26.60;56.80
46217;DHT22;47258;59.424;13.482;2022-07-30T13:30:40;26.60;55.50
46217;DHT22;47258;59.424;13.482;2022-07-30T13:33:07;26.50;55.80
46217;DHT22;47258;59.424;13.482;2022-07-30T13:35:34;26.40;57.20
46217;DHT22;47258;59.424;13.482;2022-07-30T13:38:01;26.40;56.40
46217;DHT22;47258;59.424;13.482;2022-07-30T13:40:31;26.40;57.00
46217;DHT22;47258;59.424;13.482;2022-07-30T13:43:00;26.40;57.50
46217;DHT22;47258;59.424;13.482;2022-07-30T13:45:28;26.40;57.20
46217;DHT22;47258;59.424;13.482;2022-07-30T13:47:56;26.40;57.80
46217;DHT22;47258;59.424;13.482;2022-07-30T13:50:23;26.30;56.90
46217;DHT22;47258;59.424;13.482;2022-07-30T13:52:50;26.30;56.30
46217;DHT22;47258;59.424;13.482;2022-07-30T13:55:16;26.20;57.30
46217;DHT22;47258;59.424;13.482;2022-07-30T13:57:43;26.10;56.30
46217;DHT22;47258;59.424;13.482;2022-07-30T14:00:13;25.90;57.10
46217;DHT22;47258;59.424;13.482;2022-07-30T14:02:40;25.80;58.50
46217;DHT22;47258;59.424;13.482;2022-07-30T14:05:07;25.70;58.30
46217;DHT22;47258;59.424;13.482;2022-07-30T14:07:35;25.60;59.60
46217;DHT22;47258;59.424;13.482;2022-07-30T14:10:04;25.60;60.40
46217;DHT22;47258;59.424;13.482;2022-07-30T14:12:31;25.50;60.80
46217;DHT22;47258;59.424;13.482;2022-07-30T14:14:59;25.50;59.90
46217;DHT22;47258;59.424;13.482;2022-07-30T14:17:27;25.50;60.90
46217;DHT22;47258;59.424;13.482;2022-07-30T14:19:54;25.50;62.40
46217;DHT22;47258;59.424;13.482;2022-07-30T14:22:21;25.40;60.10
46217;DHT22;47258;59.424;13.482;2022-07-30T14:24:48;25.40;62.20
46217;DHT22;47258;59.424;13.482;2022-07-30T14:27:17;25.40;61.10
46217;DHT22;47258;59.424;13.482;2022-07-30T14:29:45;25.30;59.70
46217;DHT22;47258;59.424;13.482;2022-07-30T14:32:12;25.30;60.10
46217;DHT22;47258;59.424;13.482;2022-07-30T14:34:40;25.20;62.20
46217;DHT22;47258;59.424;13.482;2022-07-30T14:37:07;25.20;61.70
46217;DHT22;47258;59.424;13.482;2022-07-30T14:39:34;25.20;62.30
46217;DHT22;47258;59.424;13.482;2022-07-30T14:42:02;25.10;63.30
46217;DHT22;47258;59.424;13.482;2022-07-30T14:44:30;25.10;62.40
46217;DHT22;47258;59.424;13.482;2022-07-30T14:46:57;25.00;62.60
46217;DHT22;47258;59.424;13.482;2022-07-30T14:49:24;25.00;64.40
46217;DHT22;47258;59.424;13.482;2022-07-30T14:51:53;25.00;64.00
46217;DHT22;47258;59.424;13.482;2022-07-30T14:54:20;24.90;61.60
46217;DHT22;47258;59.424;13.482;2022-07-30T14:56:47;24.90;63.70
46217;DHT22;47258;59.424;13.482;2022-07-30T14:59:14;24.90;64.90
46217;DHT22;47258;59.424;13.482;2022-07-30T15:01:41;25.00;67.70
46217;DHT22;47258;59.424;13.482;2022-07-30T15:04:08;25.20;67.50
46217;DHT22;47258;59.424;13.482;2022-07-30T15:06:36;25.20;65.30
46217;DHT22;47258;59.424;13.482;2022-07-30T15:09:06;25.20;64.20
46217;DHT22;47258;59.424;13.482;2022-07-30T15:11:33;25.20;64.40
46217;DHT22;47258;59.424;13.482;2022-07-30T15:14:00;25.20;65.20
46217;DHT22;47258;59.424;13.482;2022-07-30T15:16:27;25.20;67.60
46217;DHT22;47258;59.424;13.482;2022-07-30T15:18:54;25.30;65.20
46217;DHT22;47258;59.424;13.482;2022-07-30T15:21:21;25.30;66.70
46217;DHT22;47258;59.424;13.482;2022-07-30T15:23:48;25.40;65.10
46217;DHT22;47258;59.424;13.482;2022-07-30T15:26:17;25.40;64.20
46217;DHT22;47258;59.424;13.482;2022-07-30T15:28:44;25.40;64.20
46217;DHT22;47258;59.424;13.482;2022-07-30T15:31:11;25.40;64.50
46217;DHT22;47258;59.424;13.482;2022-07-30T15:33:38;25.30;64.70